Terminal Aerodrome Forecast
Issued by NWS

Home | Current Version | Previous Version | Graphics & Text | Print | Product List | Glossary On
Versions: 1 2 3 4 5 6 7 8 9 10 11 12 13 14 15 16 17 18 19 20 21 22 23 24 25 26 27
000
FTUS43 KLSX 191500 AAC
TAFSUS
TAF AMD
KSUS 191518Z 1915/2012 31012G20KT 5SM -TSRA SCT030CB BKN100
     FM191600 23010KT P6SM VCSH SCT030 BKN100
     FM191800 24010KT P6SM SCT040 BKN250
     FM200100 VRB04KT P6SM SCT120 BKN250=

USA.gov is the U.S. government's official web portal to all federal, state and local government web resources and services.